sensor_id;sensor_type;location;lat;lon;timestamp;pressure;altitude;pressure_sealevel;temperature;humidity
37972;BME280;23794;48.234;8.344;2023-04-03T00:00:32;94823.97;;;0.74;83.70
37972;BME280;23794;48.234;8.344;2023-04-03T00:02:59;94821.84;;;0.88;82.15
37972;BME280;23794;48.234;8.344;2023-04-03T00:05:25;94821.06;;;0.88;82.36
37972;BME280;23794;48.234;8.344;2023-04-03T00:07:52;94815.84;;;0.83;81.68
37972;BME280;23794;48.234;8.344;2023-04-03T00:10:19;94818.00;;;0.60;82.65
37972;BME280;23794;48.234;8.344;2023-04-03T00:12:46;94821.47;;;0.60;83.24
37972;BME280;23794;48.234;8.344;2023-04-03T00:15:13;94810.81;;;0.72;83.35
37972;BME280;23794;48.234;8.344;2023-04-03T00:17:40;94811.88;;;0.80;82.88
37972;BME280;23794;48.234;8.344;2023-04-03T00:20:07;94820.47;;;0.82;82.75
37972;BME280;23794;48.234;8.344;2023-04-03T00:22:34;94822.13;;;0.96;83.67
37972;BME280;23794;48.234;8.344;2023-04-03T00:25:00;94819.13;;;0.97;82.33
37972;BME280;23794;48.234;8.344;2023-04-03T00:27:27;94817.84;;;1.03;82.44
37972;BME280;23794;48.234;8.344;2023-04-03T00:29:54;94822.00;;;0.92;80.81
37972;BME280;23794;48.234;8.344;2023-04-03T00:32:21;94822.34;;;0.82;82.52
37972;BME280;23794;48.234;8.344;2023-04-03T00:34:48;94810.19;;;0.67;81.31
37972;BME280;23794;48.234;8.344;2023-04-03T00:37:14;94821.47;;;0.69;82.55
37972;BME280;23794;48.234;8.344;2023-04-03T00:39:41;94820.31;;;0.79;82.70
37972;BME280;23794;48.234;8.344;2023-04-03T00:42:09;94815.69;;;0.79;82.59
37972;BME280;23794;48.234;8.344;2023-04-03T00:47:03;94813.34;;;1.08;82.59
37972;BME280;23794;48.234;8.344;2023-04-03T00:49:31;94804.78;;;1.05;81.30
37972;BME280;23794;48.234;8.344;2023-04-03T00:51:58;94800.13;;;0.85;81.82
37972;BME280;23794;48.234;8.344;2023-04-03T00:54:26;94800.78;;;0.82;82.56
37972;BME280;23794;48.234;8.344;2023-04-03T00:56:54;94797.47;;;0.76;81.77
37972;BME280;23794;48.234;8.344;2023-04-03T00:59:30;94806.09;;;0.61;81.36
37972;BME280;23794;48.234;8.344;2023-04-03T01:01:59;94802.97;;;0.41;82.86
37972;BME280;23794;48.234;8.344;2023-04-03T01:04:31;94797.25;;;0.51;82.95
37972;BME280;23794;48.234;8.344;2023-04-03T01:07:00;94797.34;;;0.64;83.04
37972;BME280;23794;48.234;8.344;2023-04-03T01:09:28;94801.53;;;0.52;82.30
37972;BME280;23794;48.234;8.344;2023-04-03T01:12:22;94795.28;;;0.69;82.49
37972;BME280;23794;48.234;8.344;2023-04-03T01:14:52;94794.03;;;0.67;81.60
37972;BME280;23794;48.234;8.344;2023-04-03T01:20:26;94799.75;;;0.65;82.43
37972;BME280;23794;48.234;8.344;2023-04-03T01:25:47;94793.97;;;0.84;82.02
37972;BME280;23794;48.234;8.344;2023-04-03T01:28:29;94795.47;;;0.64;81.59
37972;BME280;23794;48.234;8.344;2023-04-03T01:33:32;94794.88;;;0.50;81.72
37972;BME280;23794;48.234;8.344;2023-04-03T01:35:59;94800.38;;;0.62;82.90
37972;BME280;23794;48.234;8.344;2023-04-03T01:38:27;94790.34;;;0.71;83.38
37972;BME280;23794;48.234;8.344;2023-04-03T01:40:54;94792.38;;;0.74;82.29
37972;BME280;23794;48.234;8.344;2023-04-03T01:43:21;94795.06;;;0.83;81.96
37972;BME280;23794;48.234;8.344;2023-04-03T01:45:47;94786.50;;;0.81;82.11
37972;BME280;23794;48.234;8.344;2023-04-03T01:48:16;94791.38;;;0.49;81.60
37972;BME280;23794;48.234;8.344;2023-04-03T01:50:43;94783.63;;;0.48;81.92
37972;BME280;23794;48.234;8.344;2023-04-03T01:53:10;94785.44;;;0.65;83.19
37972;BME280;23794;48.234;8.344;2023-04-03T01:55:36;94792.50;;;0.87;83.27
37972;BME280;23794;48.234;8.344;2023-04-03T01:58:03;94781.00;;;0.69;80.68
37972;BME280;23794;48.234;8.344;2023-04-03T02:00:30;94785.59;;;0.68;81.38
37972;BME280;23794;48.234;8.344;2023-04-03T02:02:57;94783.38;;;0.70;82.12
37972;BME280;23794;48.234;8.344;2023-04-03T02:05:25;94785.94;;;0.67;81.67
37972;BME280;23794;48.234;8.344;2023-04-03T02:07:52;94784.81;;;0.68;82.77
37972;BME280;23794;48.234;8.344;2023-04-03T02:10:18;94794.09;;;0.88;82.97
37972;BME280;23794;48.234;8.344;2023-04-03T02:12:45;94791.34;;;0.97;82.62
37972;BME280;23794;48.234;8.344;2023-04-03T02:15:12;94789.00;;;0.86;81.80
37972;BME280;23794;48.234;8.344;2023-04-03T02:17:39;94789.13;;;0.99;82.28
37972;BME280;23794;48.234;8.344;2023-04-03T02:20:06;94800.84;;;1.03;81.48
37972;BME280;23794;48.234;8.344;2023-04-03T02:22:33;94788.59;;;0.76;81.15
37972;BME280;23794;48.234;8.344;2023-04-03T02:25:00;94788.22;;;0.47;81.07
37972;BME280;23794;48.234;8.344;2023-04-03T02:27:27;94777.97;;;0.32;82.13
37972;BME280;23794;48.234;8.344;2023-04-03T02:29:54;94774.91;;;0.42;82.36
37972;BME280;23794;48.234;8.344;2023-04-03T02:32:21;94778.19;;;0.56;82.72
37972;BME280;23794;48.234;8.344;2023-04-03T02:34:47;94783.22;;;0.67;82.22
37972;BME280;23794;48.234;8.344;2023-04-03T02:37:15;94779.28;;;0.64;81.82
37972;BME280;23794;48.234;8.344;2023-04-03T02:39:44;94776.06;;;0.71;82.16
37972;BME280;23794;48.234;8.344;2023-04-03T02:42:10;94783.31;;;0.88;82.94
37972;BME280;23794;48.234;8.344;2023-04-03T02:44:37;94776.94;;;0.93;82.04
37972;BME280;23794;48.234;8.344;2023-04-03T02:47:05;94774.88;;;0.89;82.36
37972;BME280;23794;48.234;8.344;2023-04-03T02:49:32;94775.44;;;1.04;83.04
37972;BME280;23794;48.234;8.344;2023-04-03T02:51:59;94774.88;;;0.89;80.68
37972;BME280;23794;48.234;8.344;2023-04-03T02:54:25;94780.28;;;0.89;81.73
37972;BME280;23794;48.234;8.344;2023-04-03T02:56:57;94777.09;;;0.87;80.90
37972;BME280;23794;48.234;8.344;2023-04-03T02:59:24;94783.47;;;0.83;80.80
37972;BME280;23794;48.234;8.344;2023-04-03T03:01:51;94777.63;;;0.81;80.50
37972;BME280;23794;48.234;8.344;2023-04-03T03:04:18;94780.34;;;0.81;81.44
37972;BME280;23794;48.234;8.344;2023-04-03T03:06:45;94781.41;;;0.88;80.63
37972;BME280;23794;48.234;8.344;2023-04-03T03:09:13;94787.13;;;0.87;80.78
37972;BME280;23794;48.234;8.344;2023-04-03T03:11:41;94785.03;;;0.93;81.69
37972;BME280;23794;48.234;8.344;2023-04-03T03:14:08;94785.81;;;0.93;80.94
37972;BME280;23794;48.234;8.344;2023-04-03T03:16:35;94784.56;;;0.90;80.66
37972;BME280;23794;48.234;8.344;2023-04-03T03:19:02;94780.38;;;1.02;81.37
37972;BME280;23794;48.234;8.344;2023-04-03T03:21:29;94783.75;;;0.90;80.16
37972;BME280;23794;48.234;8.344;2023-04-03T03:23:56;94769.34;;;0.86;80.11
37972;BME280;23794;48.234;8.344;2023-04-03T03:26:22;94780.13;;;0.86;80.77
37972;BME280;23794;48.234;8.344;2023-04-03T03:28:50;94775.81;;;0.94;80.85
37972;BME280;23794;48.234;8.344;2023-04-03T03:31:17;94780.63;;;0.88;79.79
37972;BME280;23794;48.234;8.344;2023-04-03T03:33:43;94780.88;;;0.65;79.92
37972;BME280;23794;48.234;8.344;2023-04-03T03:36:10;94778.75;;;0.71;80.85
37972;BME280;23794;48.234;8.344;2023-04-03T03:38:37;94777.16;;;0.79;81.21
37972;BME280;23794;48.234;8.344;2023-04-03T03:41:04;94778.69;;;0.88;80.33
37972;BME280;23794;48.234;8.344;2023-04-03T03:43:33;94768.03;;;0.92;81.13
37972;BME280;23794;48.234;8.344;2023-04-03T03:46:00;94777.09;;;0.96;80.00
37972;BME280;23794;48.234;8.344;2023-04-03T03:48:27;94773.84;;;1.03;80.62
37972;BME280;23794;48.234;8.344;2023-04-03T03:50:55;94771.63;;;1.05;81.20
37972;BME280;23794;48.234;8.344;2023-04-03T03:53:25;94771.97;;;1.03;80.34
37972;BME280;23794;48.234;8.344;2023-04-03T03:55:56;94780.28;;;0.89;79.72
37972;BME280;23794;48.234;8.344;2023-04-03T03:58:24;94781.09;;;0.81;79.08
37972;BME280;23794;48.234;8.344;2023-04-03T04:00:51;94773.50;;;0.83;80.07
37972;BME280;23794;48.234;8.344;2023-04-03T04:03:18;94786.59;;;0.94;80.62
37972;BME280;23794;48.234;8.344;2023-04-03T04:05:47;94785.81;;;0.93;80.66
37972;BME280;23794;48.234;8.344;2023-04-03T04:08:14;94787.41;;;0.94;80.34
37972;BME280;23794;48.234;8.344;2023-04-03T04:10:43;94784.47;;;0.69;79.71
37972;BME280;23794;48.234;8.344;2023-04-03T04:13:11;94782.13;;;0.68;79.89
37972;BME280;23794;48.234;8.344;2023-04-03T04:15:38;94784.63;;;0.73;80.33
37972;BME280;23794;48.234;8.344;2023-04-03T04:18:06;94788.09;;;0.82;80.79
37972;BME280;23794;48.234;8.344;2023-04-03T04:20:33;94786.59;;;0.94;80.49
37972;BME280;23794;48.234;8.344;2023-04-03T04:23:00;94787.75;;;0.93;79.28
37972;BME280;23794;48.234;8.344;2023-04-03T04:25:28;94784.28;;;0.83;79.77
37972;BME280;23794;48.234;8.344;2023-04-03T04:27:54;94787.13;;;0.78;79.46
37972;BME280;23794;48.234;8.344;2023-04-03T04:30:21;94792.38;;;0.74;79.79
37972;BME280;23794;48.234;8.344;2023-04-03T04:32:49;94790.50;;;0.75;80.42
37972;BME280;23794;48.234;8.344;2023-04-03T04:35:17;94784.47;;;0.69;80.64
37972;BME280;23794;48.234;8.344;2023-04-03T04:37:46;94786.31;;;0.86;80.86
37972;BME280;23794;48.234;8.344;2023-04-03T04:40:14;94772.53;;;0.88;79.01
37972;BME280;23794;48.234;8.344;2023-04-03T04:42:41;94788.56;;;0.84;79.06
37972;BME280;23794;48.234;8.344;2023-04-03T04:45:09;94790.25;;;0.89;80.47
37972;BME280;23794;48.234;8.344;2023-04-03T04:47:38;94787.63;;;0.80;79.85
37972;BME280;23794;48.234;8.344;2023-04-03T04:50:05;94785.34;;;0.91;80.37
37972;BME280;23794;48.234;8.344;2023-04-03T04:52:33;94789.00;;;0.95;80.97
37972;BME280;23794;48.234;8.344;2023-04-03T04:54:59;94795.16;;;0.96;79.34
37972;BME280;23794;48.234;8.344;2023-04-03T04:57:27;94792.88;;;0.77;79.95
37972;BME280;23794;48.234;8.344;2023-04-03T04:59:56;94792.38;;;0.83;79.13
37972;BME280;23794;48.234;8.344;2023-04-03T05:02:23;94797.72;;;0.92;79.64
37972;BME280;23794;48.234;8.344;2023-04-03T05:04:50;94800.91;;;0.94;79.07
37972;BME280;23794;48.234;8.344;2023-04-03T05:07:23;94804.06;;;0.96;79.47
37972;BME280;23794;48.234;8.344;2023-04-03T05:09:49;94802.63;;;0.90;79.18
37972;BME280;23794;48.234;8.344;2023-04-03T05:12:17;94810.16;;;0.84;78.53
37972;BME280;23794;48.234;8.344;2023-04-03T05:14:51;94805.72;;;0.71;78.90
37972;BME280;23794;48.234;8.344;2023-04-03T05:17:17;94805.13;;;0.65;77.83
37972;BME280;23794;48.234;8.344;2023-04-03T05:19:48;94810.97;;;0.76;79.77
37972;BME280;23794;48.234;8.344;2023-04-03T05:22:18;94816.50;;;0.80;79.58
37972;BME280;23794;48.234;8.344;2023-04-03T05:24:45;94818.41;;;0.79;80.01
37972;BME280;23794;48.234;8.344;2023-04-03T05:27:12;94809.31;;;0.93;79.39
37972;BME280;23794;48.234;8.344;2023-04-03T05:29:43;94822.97;;;0.87;79.22
37972;BME280;23794;48.234;8.344;2023-04-03T05:32:14;94811.28;;;0.74;77.43
37972;BME280;23794;48.234;8.344;2023-04-03T05:34:41;94818.44;;;0.70;78.89
37972;BME280;23794;48.234;8.344;2023-04-03T05:37:08;94820.16;;;0.75;78.47
37972;BME280;23794;48.234;8.344;2023-04-03T05:39:35;94826.47;;;0.79;78.83
37972;BME280;23794;48.234;8.344;2023-04-03T05:42:04;94823.34;;;0.68;78.25
37972;BME280;23794;48.234;8.344;2023-04-03T05:44:31;94817.63;;;0.79;78.68
37972;BME280;23794;48.234;8.344;2023-04-03T05:46:58;94825.03;;;0.82;79.17
37972;BME280;23794;48.234;8.344;2023-04-03T05:49:24;94828.38;;;0.87;78.68
37972;BME280;23794;48.234;8.344;2023-04-03T05:51:51;94828.19;;;0.93;79.16
37972;BME280;23794;48.234;8.344;2023-04-03T05:54:27;94829.19;;;0.79;77.33
37972;BME280;23794;48.234;8.344;2023-04-03T05:57:01;94828.06;;;0.80;78.86
37972;BME280;23794;48.234;8.344;2023-04-03T05:59:28;94822.88;;;0.75;78.22
37972;BME280;23794;48.234;8.344;2023-04-03T06:01:57;94832.09;;;0.56;77.18
37972;BME280;23794;48.234;8.344;2023-04-03T06:04:24;94835.56;;;0.66;77.53
37972;BME280;23794;48.234;8.344;2023-04-03T06:06:52;94828.94;;;0.63;77.63
37972;BME280;23794;48.234;8.344;2023-04-03T06:09:21;94831.00;;;0.57;78.63
37972;BME280;23794;48.234;8.344;2023-04-03T06:11:48;94835.56;;;0.66;78.18
37972;BME280;23794;48.234;8.344;2023-04-03T06:14:16;94838.09;;;0.80;79.08
37972;BME280;23794;48.234;8.344;2023-04-03T06:16:42;94830.28;;;0.87;76.28
37972;BME280;23794;48.234;8.344;2023-04-03T06:19:11;94835.69;;;0.87;77.47
37972;BME280;23794;48.234;8.344;2023-04-03T06:21:43;94846.75;;;0.94;77.46
37972;BME280;23794;48.234;8.344;2023-04-03T06:24:14;94839.75;;;0.54;75.82
37972;BME280;23794;48.234;8.344;2023-04-03T06:26:42;94841.31;;;0.55;76.73
37972;BME280;23794;48.234;8.344;2023-04-03T06:29:09;94849.25;;;0.61;75.93
37972;BME280;23794;48.234;8.344;2023-04-03T06:31:35;94846.59;;;0.34;76.79
37972;BME280;23794;48.234;8.344;2023-04-03T06:34:05;94848.03;;;0.32;77.02
37972;BME280;23794;48.234;8.344;2023-04-03T06:36:35;94844.34;;;0.45;78.48
37972;BME280;23794;48.234;8.344;2023-04-03T06:39:03;94845.09;;;0.63;77.06
37972;BME280;23794;48.234;8.344;2023-04-03T06:41:30;94853.81;;;0.69;77.13
37972;BME280;23794;48.234;8.344;2023-04-03T06:43:57;94850.84;;;0.62;76.77
37972;BME280;23794;48.234;8.344;2023-04-03T06:46:26;94863.38;;;0.40;76.20
37972;BME280;23794;48.234;8.344;2023-04-03T06:48:53;94864.47;;;0.56;76.91
37972;BME280;23794;48.234;8.344;2023-04-03T06:51:27;94854.34;;;0.53;75.17
37972;BME280;23794;48.234;8.344;2023-04-03T06:53:57;94862.91;;;0.47;75.61
37972;BME280;23794;48.234;8.344;2023-04-03T06:56:25;94856.53;;;0.60;74.98
37972;BME280;23794;48.234;8.344;2023-04-03T06:58:54;94861.81;;;0.30;74.01
37972;BME280;23794;48.234;8.344;2023-04-03T07:01:25;94863.41;;;0.22;74.57
37972;BME280;23794;48.234;8.344;2023-04-03T07:03:53;94861.50;;;0.32;74.14
37972;BME280;23794;48.234;8.344;2023-04-03T07:06:20;94865.00;;;0.23;74.23
37972;BME280;23794;48.234;8.344;2023-04-03T07:08:47;94856.75;;;0.02;74.06
37972;BME280;23794;48.234;8.344;2023-04-03T07:11:16;94865.31;;;0.31;76.04
37972;BME280;23794;48.234;8.344;2023-04-03T07:13:43;94860.47;;;0.63;76.40
37972;BME280;23794;48.234;8.344;2023-04-03T07:16:10;94865.22;;;0.74;75.20
37972;BME280;23794;48.234;8.344;2023-04-03T07:18:37;94868.56;;;0.63;74.09
37972;BME280;23794;48.234;8.344;2023-04-03T07:21:04;94866.16;;;0.79;75.98
37972;BME280;23794;48.234;8.344;2023-04-03T07:23:31;94865.84;;;0.80;73.92
37972;BME280;23794;48.234;8.344;2023-04-03T07:25:58;94867.97;;;0.57;72.50
37972;BME280;23794;48.234;8.344;2023-04-03T07:28:25;94867.16;;;0.56;73.80
37972;BME280;23794;48.234;8.344;2023-04-03T07:30:59;94877.59;;;0.76;74.94
37972;BME280;23794;48.234;8.344;2023-04-03T07:33:26;94874.50;;;0.95;73.08
37972;BME280;23794;48.234;8.344;2023-04-03T07:35:53;94874.13;;;1.14;74.55
37972;BME280;23794;48.234;8.344;2023-04-03T07:38:19;94872.38;;;1.18;73.03
37972;BME280;23794;48.234;8.344;2023-04-03T07:40:50;94874.47;;;1.12;72.49
37972;BME280;23794;48.234;8.344;2023-04-03T07:43:19;94873.91;;;1.28;72.83
37972;BME280;23794;48.234;8.344;2023-04-03T07:45:48;94882.09;;;1.40;72.47
37972;BME280;23794;48.234;8.344;2023-04-03T07:48:23;94873.22;;;1.40;72.91
37972;BME280;23794;48.234;8.344;2023-04-03T07:50:50;94871.22;;;1.28;71.15
37972;BME280;23794;48.234;8.344;2023-04-03T07:53:17;94870.19;;;1.41;70.83
37972;BME280;23794;48.234;8.344;2023-04-03T07:55:47;94883.78;;;1.53;70.60
37972;BME280;23794;48.234;8.344;2023-04-03T07:58:16;94881.06;;;1.24;67.68
37972;BME280;23794;48.234;8.344;2023-04-03T08:00:44;94885.50;;;0.89;66.75
37972;BME280;23794;48.234;8.344;2023-04-03T08:03:12;94882.69;;;0.77;67.24
37972;BME280;23794;48.234;8.344;2023-04-03T08:05:44;94878.97;;;0.90;69.16
37972;BME280;23794;48.234;8.344;2023-04-03T08:08:13;94888.28;;;1.11;67.81
37972;BME280;23794;48.234;8.344;2023-04-03T08:10:41;94885.97;;;0.83;67.63
37972;BME280;23794;48.234;8.344;2023-04-03T08:13:08;94888.06;;;0.77;70.04
37972;BME280;23794;48.234;8.344;2023-04-03T08:15:36;94898.97;;;0.89;69.95
37972;BME280;23794;48.234;8.344;2023-04-03T08:18:03;94896.53;;;1.14;70.49
37972;BME280;23794;48.234;8.344;2023-04-03T08:20:30;94904.03;;;1.38;70.67
37972;BME280;23794;48.234;8.344;2023-04-03T08:22:57;94888.81;;;1.64;70.65
37972;BME280;23794;48.234;8.344;2023-04-03T08:25:24;94885.03;;;2.07;70.56
37972;BME280;23794;48.234;8.344;2023-04-03T08:27:51;94885.59;;;1.71;65.38
37972;BME280;23794;48.234;8.344;2023-04-03T08:30:18;94888.03;;;1.63;66.04
37972;BME280;23794;48.234;8.344;2023-04-03T08:32:44;94880.34;;;1.74;66.41
37972;BME280;23794;48.234;8.344;2023-04-03T08:35:11;94878.84;;;2.07;65.53
37972;BME280;23794;48.234;8.344;2023-04-03T08:37:39;94875.06;;;1.99;63.61
37972;BME280;23794;48.234;8.344;2023-04-03T08:40:11;94879.13;;;1.63;62.70
37972;BME280;23794;48.234;8.344;2023-04-03T08:45:30;94886.56;;;2.17;66.21
37972;BME280;23794;48.234;8.344;2023-04-03T08:48:13;94885.41;;;2.73;66.46
37972;BME280;23794;48.234;8.344;2023-04-03T08:50:48;94891.25;;;2.96;64.44
37972;BME280;23794;48.234;8.344;2023-04-03T08:53:20;94883.28;;;2.66;60.13
37972;BME280;23794;48.234;8.344;2023-04-03T08:55:52;94884.13;;;2.91;62.16
37972;BME280;23794;48.234;8.344;2023-04-03T08:58:22;94887.63;;;3.04;63.47
37972;BME280;23794;48.234;8.344;2023-04-03T09:01:19;94888.09;;;2.60;61.41
37972;BME280;23794;48.234;8.344;2023-04-03T09:03:46;94892.66;;;2.81;65.16
37972;BME280;23794;48.234;8.344;2023-04-03T09:06:18;94893.03;;;3.04;65.17
37972;BME280;23794;48.234;8.344;2023-04-03T09:08:53;94884.78;;;3.01;61.08
37972;BME280;23794;48.234;8.344;2023-04-03T09:14:16;94894.09;;;3.24;63.91
37972;BME280;23794;48.234;8.344;2023-04-03T09:16:49;94896.91;;;3.28;62.93
37972;BME280;23794;48.234;8.344;2023-04-03T09:22:25;94884.28;;;3.32;61.82
37972;BME280;23794;48.234;8.344;2023-04-03T09:25:53;94895.00;;;3.66;64.20
37972;BME280;23794;48.234;8.344;2023-04-03T09:28:00;94891.50;;;3.28;61.34
37972;BME280;23794;48.234;8.344;2023-04-03T09:30:28;94890.72;;;3.27;61.21
37972;BME280;23794;48.234;8.344;2023-04-03T09:32:56;94884.94;;;3.29;60.45
37972;BME280;23794;48.234;8.344;2023-04-03T09:35:31;94902.91;;;3.71;65.22
37972;BME280;23794;48.234;8.344;2023-04-03T09:40:50;94902.44;;;3.32;60.61
37972;BME280;23794;48.234;8.344;2023-04-03T09:45:51;94891.06;;;3.38;63.08
37972;BME280;23794;48.234;8.344;2023-04-03T09:48:24;94901.34;;;3.57;61.76
37972;BME280;23794;48.234;8.344;2023-04-03T09:50:52;94897.03;;;3.32;59.62
37972;BME280;23794;48.234;8.344;2023-04-03T09:53:33;94893.22;;;3.57;61.42
37972;BME280;23794;48.234;8.344;2023-04-03T09:56:01;94898.50;;;3.54;60.33
37972;BME280;23794;48.234;8.344;2023-04-03T09:58:40;94893.53;;;3.68;59.50
37972;BME280;23794;48.234;8.344;2023-04-03T10:06:48;94898.94;;;3.93;58.57
37972;BME280;23794;48.234;8.344;2023-04-03T10:09:29;94896.81;;;3.49;56.98
37972;BME280;23794;48.234;8.344;2023-04-03T10:12:03;94892.97;;;3.25;58.58
37972;BME280;23794;48.234;8.344;2023-04-03T10:17:15;94883.72;;;3.39;57.37
37972;BME280;23794;48.234;8.344;2023-04-03T10:22:24;94876.13;;;3.07;59.52
37972;BME280;23794;48.234;8.344;2023-04-03T10:24:58;94880.88;;;3.23;60.48
37972;BME280;23794;48.234;8.344;2023-04-03T10:30:33;94873.88;;;3.84;59.37
37972;BME280;23794;48.234;8.344;2023-04-03T10:41:21;94875.84;;;4.24;56.42
37972;BME280;23794;48.234;8.344;2023-04-03T10:46:49;94878.53;;;4.52;57.98
37972;BME280;23794;48.234;8.344;2023-04-03T10:49:32;94875.97;;;4.44;56.42
37972;BME280;23794;48.234;8.344;2023-04-03T10:57:37;94882.50;;;4.14;55.50
37972;BME280;23794;48.234;8.344;2023-04-03T11:00:06;94881.56;;;3.94;58.11
37972;BME280;23794;48.234;8.344;2023-04-03T11:08:29;94874.31;;;3.98;59.05
37972;BME280;23794;48.234;8.344;2023-04-03T11:11:05;94875.50;;;4.54;58.43
37972;BME280;23794;48.234;8.344;2023-04-03T11:13:38;94863.81;;;4.66;58.57
37972;BME280;23794;48.234;8.344;2023-04-03T11:16:07;94872.25;;;4.77;55.38
37972;BME280;23794;48.234;8.344;2023-04-03T11:18:43;94870.00;;;4.66;55.05
37972;BME280;23794;48.234;8.344;2023-04-03T11:23:46;94863.31;;;4.07;53.95
37972;BME280;23794;48.234;8.344;2023-04-03T11:26:18;94864.41;;;3.78;56.22
37972;BME280;23794;48.234;8.344;2023-04-03T11:28:45;94864.59;;;3.97;57.01
37972;BME280;23794;48.234;8.344;2023-04-03T11:34:13;94855.91;;;4.61;54.41
37972;BME280;23794;48.234;8.344;2023-04-03T11:36:54;94852.88;;;4.78;56.21
37972;BME280;23794;48.234;8.344;2023-04-03T11:39:26;94859.25;;;4.70;54.14
37972;BME280;23794;48.234;8.344;2023-04-03T11:41:54;94859.28;;;4.86;55.75
37972;BME280;23794;48.234;8.344;2023-04-03T11:44:38;94851.88;;;4.70;56.24
37972;BME280;23794;48.234;8.344;2023-04-03T11:47:10;94851.03;;;4.82;52.60
37972;BME280;23794;48.234;8.344;2023-04-03T12:03:35;94847.72;;;4.73;53.96
37972;BME280;23794;48.234;8.344;2023-04-03T12:09:34;94844.72;;;4.34;52.76
37972;BME280;23794;48.234;8.344;2023-04-03T12:12:29;94834.53;;;4.02;54.23
37972;BME280;23794;48.234;8.344;2023-04-03T12:15:12;94841.34;;;3.84;53.25
37972;BME280;23794;48.234;8.344;2023-04-03T12:17:44;94839.84;;;3.99;55.65
37972;BME280;23794;48.234;8.344;2023-04-03T12:21:14;94838.50;;;4.33;56.36
37972;BME280;23794;48.234;8.344;2023-04-03T12:23:35;94847.84;;;4.64;55.50
37972;BME280;23794;48.234;8.344;2023-04-03T12:26:20;94841.75;;;4.83;52.73
37972;BME280;23794;48.234;8.344;2023-04-03T12:28:49;94845.97;;;4.81;53.84
37972;BME280;23794;48.234;8.344;2023-04-03T12:31:17;94846.69;;;4.78;53.85
37972;BME280;23794;48.234;8.344;2023-04-03T12:45:02;94835.91;;;4.97;51.97
37972;BME280;23794;48.234;8.344;2023-04-03T12:47:36;94830.50;;;4.53;53.74
37972;BME280;23794;48.234;8.344;2023-04-03T12:50:17;94830.78;;;4.64;53.96
37972;BME280;23794;48.234;8.344;2023-04-03T12:52:51;94836.06;;;4.72;53.74
37972;BME280;23794;48.234;8.344;2023-04-03T12:55:20;94831.88;;;4.91;53.85
37972;BME280;23794;48.234;8.344;2023-04-03T12:57:48;94826.59;;;4.82;51.51
37972;BME280;23794;48.234;8.344;2023-04-03T13:02:49;94818.94;;;5.00;50.80
37972;BME280;23794;48.234;8.344;2023-04-03T13:05:18;94823.41;;;5.09;51.62
37972;BME280;23794;48.234;8.344;2023-04-03T13:07:49;94827.97;;;5.05;51.60
37972;BME280;23794;48.234;8.344;2023-04-03T13:10:19;94821.25;;;4.86;49.84
37972;BME280;23794;48.234;8.344;2023-04-03T13:15:23;94815.59;;;4.91;49.29
37972;BME280;23794;48.234;8.344;2023-04-03T13:17:52;94817.34;;;5.31;50.71
37972;BME280;23794;48.234;8.344;2023-04-03T13:22:53;94824.41;;;5.68;50.73
37972;BME280;23794;48.234;8.344;2023-04-03T13:25:24;94819.41;;;5.18;48.43
37972;BME280;23794;48.234;8.344;2023-04-03T13:27:52;94820.44;;;5.14;50.62
37972;BME280;23794;48.234;8.344;2023-04-03T13:30:39;94834.00;;;5.30;50.79
37972;BME280;23794;48.234;8.344;2023-04-03T13:33:20;94814.66;;;5.15;49.35
37972;BME280;23794;48.234;8.344;2023-04-03T13:36:00;94815.59;;;5.23;50.21
37972;BME280;23794;48.234;8.344;2023-04-03T13:38:30;94804.78;;;5.59;51.06
37972;BME280;23794;48.234;8.344;2023-04-03T13:41:20;94813.13;;;5.50;47.98
37972;BME280;23794;48.234;8.344;2023-04-03T13:43:47;94806.88;;;5.65;49.36
37972;BME280;23794;48.234;8.344;2023-04-03T13:48:45;94809.31;;;5.03;49.91
37972;BME280;23794;48.234;8.344;2023-04-03T13:53:48;94806.13;;;4.85;49.67
37972;BME280;23794;48.234;8.344;2023-04-03T13:56:23;94812.88;;;4.91;50.10
37972;BME280;23794;48.234;8.344;2023-04-03T13:59:06;94821.63;;;4.84;49.62
37972;BME280;23794;48.234;8.344;2023-04-03T14:01:54;94820.59;;;5.05;50.17
37972;BME280;23794;48.234;8.344;2023-04-03T14:06:49;94816.19;;;4.84;49.07
37972;BME280;23794;48.234;8.344;2023-04-03T14:09:18;94808.53;;;4.58;49.01
37972;BME280;23794;48.234;8.344;2023-04-03T14:11:46;94808.72;;;4.65;49.95
37972;BME280;23794;48.234;8.344;2023-04-03T14:14:23;94801.59;;;5.05;50.62
37972;BME280;23794;48.234;8.344;2023-04-03T14:16:54;94798.59;;;5.42;49.95
37972;BME280;23794;48.234;8.344;2023-04-03T14:19:27;94796.13;;;5.53;47.86
37972;BME280;23794;48.234;8.344;2023-04-03T14:21:54;94796.19;;;5.21;48.69
37972;BME280;23794;48.234;8.344;2023-04-03T14:24:23;94791.34;;;5.30;48.43
37972;BME280;23794;48.234;8.344;2023-04-03T14:26:52;94789.78;;;5.29;47.81
37972;BME280;23794;48.234;8.344;2023-04-03T14:29:20;94793.19;;;5.26;50.03
37972;BME280;23794;48.234;8.344;2023-04-03T14:31:49;94800.97;;;5.28;49.86
37972;BME280;23794;48.234;8.344;2023-04-03T14:34:26;94798.56;;;5.07;48.62
37972;BME280;23794;48.234;8.344;2023-04-03T14:36:52;94787.66;;;4.75;50.42
37972;BME280;23794;48.234;8.344;2023-04-03T14:39:19;94801.13;;;4.55;50.12
37972;BME280;23794;48.234;8.344;2023-04-03T14:41:46;94791.97;;;4.31;50.21
37972;BME280;23794;48.234;8.344;2023-04-03T14:44:13;94796.16;;;3.88;51.34
37972;BME280;23794;48.234;8.344;2023-04-03T14:46:42;94805.19;;;3.92;53.33
37972;BME280;23794;48.234;8.344;2023-04-03T14:49:15;94809.09;;;3.79;52.18
37972;BME280;23794;48.234;8.344;2023-04-03T14:51:44;94806.91;;;3.84;52.35
37972;BME280;23794;48.234;8.344;2023-04-03T14:54:19;94805.88;;;3.89;51.35
37972;BME280;23794;48.234;8.344;2023-04-03T14:56:48;94796.47;;;3.99;52.02
37972;BME280;23794;48.234;8.344;2023-04-03T14:59:14;94799.97;;;3.99;51.70
37972;BME280;23794;48.234;8.344;2023-04-03T15:01:43;94799.72;;;4.04;50.45
37972;BME280;23794;48.234;8.344;2023-04-03T15:04:13;94795.06;;;3.76;50.53
37972;BME280;23794;48.234;8.344;2023-04-03T15:06:41;94797.09;;;3.80;50.63
37972;BME280;23794;48.234;8.344;2023-04-03T15:09:26;94798.88;;;3.88;51.33
37972;BME280;23794;48.234;8.344;2023-04-03T15:11:54;94793.13;;;4.18;51.37
37972;BME280;23794;48.234;8.344;2023-04-03T15:14:22;94792.72;;;4.32;52.36